sensor_id;sensor_type;location;lat;lon;timestamp;temperature;humidity
13606;DHT22;6874;52.084;5.090;2023-06-10T00:00:00;23.90;58.80
13606;DHT22;6874;52.084;5.090;2023-06-10T00:02:26;23.90;58.90
13606;DHT22;6874;52.084;5.090;2023-06-10T00:04:52;23.90;59.00
13606;DHT22;6874;52.084;5.090;2023-06-10T00:07:18;23.80;58.90
13606;DHT22;6874;52.084;5.090;2023-06-10T00:09:44;23.80;59.10
13606;DHT22;6874;52.084;5.090;2023-06-10T00:12:09;23.70;59.00
13606;DHT22;6874;52.084;5.090;2023-06-10T00:14:39;23.70;59.00
13606;DHT22;6874;52.084;5.090;2023-06-10T00:17:06;23.70;59.10
13606;DHT22;6874;52.084;5.090;2023-06-10T00:19:34;23.70;59.00
13606;DHT22;6874;52.084;5.090;2023-06-10T00:22:00;23.60;59.00
13606;DHT22;6874;52.084;5.090;2023-06-10T00:24:26;23.60;59.00
13606;DHT22;6874;52.084;5.090;2023-06-10T00:26:51;23.50;58.80
13606;DHT22;6874;52.084;5.090;2023-06-10T00:29:17;23.50;58.90
13606;DHT22;6874;52.084;5.090;2023-06-10T00:31:44;23.50;59.10
13606;DHT22;6874;52.084;5.090;2023-06-10T00:34:10;23.40;58.90
13606;DHT22;6874;52.084;5.090;2023-06-10T00:36:35;23.30;58.90
13606;DHT22;6874;52.084;5.090;2023-06-10T00:39:01;23.30;58.90
13606;DHT22;6874;52.084;5.090;2023-06-10T00:41:28;23.30;59.00
13606;DHT22;6874;52.084;5.090;2023-06-10T00:43:53;23.30;59.10
13606;DHT22;6874;52.084;5.090;2023-06-10T00:46:20;23.30;59.10
13606;DHT22;6874;52.084;5.090;2023-06-10T00:48:46;23.20;58.90
13606;DHT22;6874;52.084;5.090;2023-06-10T00:51:12;23.20;59.00
13606;DHT22;6874;52.084;5.090;2023-06-10T00:53:41;23.20;59.20
13606;DHT22;6874;52.084;5.090;2023-06-10T00:56:07;23.20;59.10
13606;DHT22;6874;52.084;5.090;2023-06-10T00:58:33;23.10;59.10
13606;DHT22;6874;52.084;5.090;2023-06-10T01:00:58;23.00;59.00
13606;DHT22;6874;52.084;5.090;2023-06-10T01:03:24;23.00;59.00
13606;DHT22;6874;52.084;5.090;2023-06-10T01:05:57;23.00;59.00
13606;DHT22;6874;52.084;5.090;2023-06-10T01:08:58;23.00;59.00
13606;DHT22;6874;52.084;5.090;2023-06-10T01:11:39;23.00;58.80
13606;DHT22;6874;52.084;5.090;2023-06-10T01:14:07;22.90;59.00
13606;DHT22;6874;52.084;5.090;2023-06-10T01:16:34;22.80;58.70
13606;DHT22;6874;52.084;5.090;2023-06-10T01:19:02;22.90;58.90
13606;DHT22;6874;52.084;5.090;2023-06-10T01:21:28;22.80;58.70
13606;DHT22;6874;52.084;5.090;2023-06-10T01:23:54;22.70;58.80
13606;DHT22;6874;52.084;5.090;2023-06-10T01:26:25;22.70;58.70
13606;DHT22;6874;52.084;5.090;2023-06-10T01:29:07;22.70;58.80
13606;DHT22;6874;52.084;5.090;2023-06-10T01:34:14;22.60;58.50
13606;DHT22;6874;52.084;5.090;2023-06-10T01:36:45;22.60;58.40
13606;DHT22;6874;52.084;5.090;2023-06-10T01:39:11;22.50;58.40
13606;DHT22;6874;52.084;5.090;2023-06-10T01:41:38;22.50;58.60
13606;DHT22;6874;52.084;5.090;2023-06-10T01:44:04;22.50;58.50
13606;DHT22;6874;52.084;5.090;2023-06-10T01:46:30;22.40;58.50
13606;DHT22;6874;52.084;5.090;2023-06-10T01:48:56;22.50;58.60
13606;DHT22;6874;52.084;5.090;2023-06-10T01:51:21;22.40;58.50
13606;DHT22;6874;52.084;5.090;2023-06-10T01:53:47;22.40;58.60
13606;DHT22;6874;52.084;5.090;2023-06-10T01:56:12;22.30;58.40
13606;DHT22;6874;52.084;5.090;2023-06-10T01:58:44;22.30;58.50
13606;DHT22;6874;52.084;5.090;2023-06-10T02:01:10;22.30;58.30
13606;DHT22;6874;52.084;5.090;2023-06-10T02:03:36;22.20;58.40
13606;DHT22;6874;52.084;5.090;2023-06-10T02:06:01;22.20;58.40
13606;DHT22;6874;52.084;5.090;2023-06-10T02:08:27;22.20;58.60
13606;DHT22;6874;52.084;5.090;2023-06-10T02:10:53;22.10;58.40
13606;DHT22;6874;52.084;5.090;2023-06-10T02:13:19;22.10;58.40
13606;DHT22;6874;52.084;5.090;2023-06-10T02:15:45;22.10;58.50
13606;DHT22;6874;52.084;5.090;2023-06-10T02:18:10;22.00;58.60
13606;DHT22;6874;52.084;5.090;2023-06-10T02:20:37;22.00;58.60
13606;DHT22;6874;52.084;5.090;2023-06-10T02:23:03;22.00;58.60
13606;DHT22;6874;52.084;5.090;2023-06-10T02:25:29;21.90;58.50
13606;DHT22;6874;52.084;5.090;2023-06-10T02:27:55;22.00;58.60
13606;DHT22;6874;52.084;5.090;2023-06-10T02:30:21;21.90;58.50
13606;DHT22;6874;52.084;5.090;2023-06-10T02:32:46;21.90;58.50
13606;DHT22;6874;52.084;5.090;2023-06-10T02:35:14;21.80;58.40
13606;DHT22;6874;52.084;5.090;2023-06-10T02:37:40;21.80;58.60
13606;DHT22;6874;52.084;5.090;2023-06-10T02:40:06;21.80;58.60
13606;DHT22;6874;52.084;5.090;2023-06-10T02:42:32;21.80;58.60
13606;DHT22;6874;52.084;5.090;2023-06-10T02:44:58;21.80;58.50
13606;DHT22;6874;52.084;5.090;2023-06-10T02:47:24;21.70;58.60
13606;DHT22;6874;52.084;5.090;2023-06-10T02:49:49;21.70;58.60
13606;DHT22;6874;52.084;5.090;2023-06-10T02:52:15;21.70;58.70
13606;DHT22;6874;52.084;5.090;2023-06-10T02:54:40;21.60;58.80
13606;DHT22;6874;52.084;5.090;2023-06-10T02:57:06;21.60;58.80
13606;DHT22;6874;52.084;5.090;2023-06-10T02:59:31;21.60;59.40
13606;DHT22;6874;52.084;5.090;2023-06-10T03:01:57;21.60;58.90
13606;DHT22;6874;52.084;5.090;2023-06-10T03:04:24;21.50;58.90
13606;DHT22;6874;52.084;5.090;2023-06-10T03:06:50;21.50;58.80
13606;DHT22;6874;52.084;5.090;2023-06-10T03:09:16;21.40;58.90
13606;DHT22;6874;52.084;5.090;2023-06-10T03:11:41;21.40;59.10
13606;DHT22;6874;52.084;5.090;2023-06-10T03:14:07;21.40;59.10
13606;DHT22;6874;52.084;5.090;2023-06-10T03:16:32;21.40;59.20
13606;DHT22;6874;52.084;5.090;2023-06-10T03:18:58;21.40;59.10
13606;DHT22;6874;52.084;5.090;2023-06-10T03:21:24;21.40;59.40
13606;DHT22;6874;52.084;5.090;2023-06-10T03:23:49;21.40;59.30
13606;DHT22;6874;52.084;5.090;2023-06-10T03:26:15;21.30;59.30
13606;DHT22;6874;52.084;5.090;2023-06-10T03:28:41;21.30;59.50
13606;DHT22;6874;52.084;5.090;2023-06-10T03:31:06;21.20;59.30
13606;DHT22;6874;52.084;5.090;2023-06-10T03:33:32;21.20;59.40
13606;DHT22;6874;52.084;5.090;2023-06-10T03:35:58;21.30;59.60
13606;DHT22;6874;52.084;5.090;2023-06-10T03:38:24;21.20;59.60
13606;DHT22;6874;52.084;5.090;2023-06-10T03:40:49;21.20;59.70
13606;DHT22;6874;52.084;5.090;2023-06-10T03:43:15;21.10;59.70
13606;DHT22;6874;52.084;5.090;2023-06-10T03:45:40;21.10;59.80
13606;DHT22;6874;52.084;5.090;2023-06-10T03:48:07;21.10;59.70
13606;DHT22;6874;52.084;5.090;2023-06-10T03:50:33;21.10;59.90
13606;DHT22;6874;52.084;5.090;2023-06-10T03:52:59;21.10;60.00
13606;DHT22;6874;52.084;5.090;2023-06-10T03:55:25;21.00;59.90
13606;DHT22;6874;52.084;5.090;2023-06-10T03:57:50;21.00;59.90
13606;DHT22;6874;52.084;5.090;2023-06-10T04:00:16;21.00;60.30
13606;DHT22;6874;52.084;5.090;2023-06-10T04:02:43;21.00;60.20
13606;DHT22;6874;52.084;5.090;2023-06-10T04:05:19;20.90;60.20
13606;DHT22;6874;52.084;5.090;2023-06-10T04:07:47;21.00;60.30
13606;DHT22;6874;52.084;5.090;2023-06-10T04:10:14;20.90;60.40
13606;DHT22;6874;52.084;5.090;2023-06-10T04:12:40;20.90;60.40
13606;DHT22;6874;52.084;5.090;2023-06-10T04:15:06;20.90;60.40
13606;DHT22;6874;52.084;5.090;2023-06-10T04:17:32;20.90;60.40
13606;DHT22;6874;52.084;5.090;2023-06-10T04:19:58;20.90;60.70
13606;DHT22;6874;52.084;5.090;2023-06-10T04:22:24;20.90;60.50
13606;DHT22;6874;52.084;5.090;2023-06-10T04:24:49;20.80;60.60
13606;DHT22;6874;52.084;5.090;2023-06-10T04:27:15;20.80;60.60
13606;DHT22;6874;52.084;5.090;2023-06-10T04:29:41;20.80;60.70
13606;DHT22;6874;52.084;5.090;2023-06-10T04:32:06;20.80;60.90
13606;DHT22;6874;52.084;5.090;2023-06-10T04:34:36;20.80;60.80
13606;DHT22;6874;52.084;5.090;2023-06-10T04:37:01;20.80;60.90
13606;DHT22;6874;52.084;5.090;2023-06-10T04:39:27;20.80;61.00
13606;DHT22;6874;52.084;5.090;2023-06-10T04:41:52;20.80;61.10
13606;DHT22;6874;52.084;5.090;2023-06-10T04:44:18;20.70;61.10
13606;DHT22;6874;52.084;5.090;2023-06-10T04:46:44;20.70;60.90
13606;DHT22;6874;52.084;5.090;2023-06-10T04:49:09;20.70;61.00
13606;DHT22;6874;52.084;5.090;2023-06-10T04:51:42;20.70;61.20
13606;DHT22;6874;52.084;5.090;2023-06-10T04:54:08;20.70;61.40
13606;DHT22;6874;52.084;5.090;2023-06-10T04:56:33;20.70;61.50
13606;DHT22;6874;52.084;5.090;2023-06-10T04:59:02;20.70;61.30
13606;DHT22;6874;52.084;5.090;2023-06-10T05:01:27;20.70;61.50
13606;DHT22;6874;52.084;5.090;2023-06-10T05:03:53;20.70;61.80
13606;DHT22;6874;52.084;5.090;2023-06-10T05:06:19;20.70;61.60
13606;DHT22;6874;52.084;5.090;2023-06-10T05:08:44;20.70;61.70
13606;DHT22;6874;52.084;5.090;2023-06-10T05:11:10;20.70;61.80
13606;DHT22;6874;52.084;5.090;2023-06-10T05:13:35;20.70;62.00
13606;DHT22;6874;52.084;5.090;2023-06-10T05:16:01;20.60;61.70
13606;DHT22;6874;52.084;5.090;2023-06-10T05:18:27;20.60;62.00
13606;DHT22;6874;52.084;5.090;2023-06-10T05:20:53;20.60;62.00
13606;DHT22;6874;52.084;5.090;2023-06-10T05:23:19;20.60;62.10
13606;DHT22;6874;52.084;5.090;2023-06-10T05:25:45;20.60;62.10
13606;DHT22;6874;52.084;5.090;2023-06-10T05:28:11;20.60;62.10
13606;DHT22;6874;52.084;5.090;2023-06-10T05:30:37;20.70;62.20
13606;DHT22;6874;52.084;5.090;2023-06-10T05:33:04;20.70;62.20
13606;DHT22;6874;52.084;5.090;2023-06-10T05:35:29;20.70;62.30
13606;DHT22;6874;52.084;5.090;2023-06-10T05:37:55;20.70;62.40
13606;DHT22;6874;52.084;5.090;2023-06-10T05:40:21;20.60;62.20
13606;DHT22;6874;52.084;5.090;2023-06-10T05:42:46;20.60;62.50
13606;DHT22;6874;52.084;5.090;2023-06-10T05:45:32;20.60;62.50
13606;DHT22;6874;52.084;5.090;2023-06-10T05:47:58;20.60;62.30
13606;DHT22;6874;52.084;5.090;2023-06-10T05:50:26;20.70;62.70
13606;DHT22;6874;52.084;5.090;2023-06-10T05:52:52;20.70;62.50
13606;DHT22;6874;52.084;5.090;2023-06-10T05:55:24;20.70;62.50
13606;DHT22;6874;52.084;5.090;2023-06-10T05:57:58;20.70;62.80
13606;DHT22;6874;52.084;5.090;2023-06-10T06:00:25;20.70;62.80
13606;DHT22;6874;52.084;5.090;2023-06-10T06:02:51;20.70;62.60
13606;DHT22;6874;52.084;5.090;2023-06-10T06:05:24;20.70;62.80
13606;DHT22;6874;52.084;5.090;2023-06-10T06:07:49;20.70;62.70
13606;DHT22;6874;52.084;5.090;2023-06-10T06:10:17;20.80;63.00
13606;DHT22;6874;52.084;5.090;2023-06-10T06:12:42;20.80;63.00
13606;DHT22;6874;52.084;5.090;2023-06-10T06:15:09;20.80;63.20
13606;DHT22;6874;52.084;5.090;2023-06-10T06:17:34;20.80;63.10
13606;DHT22;6874;52.084;5.090;2023-06-10T06:20:01;20.80;63.40
13606;DHT22;6874;52.084;5.090;2023-06-10T06:22:27;20.80;63.10
13606;DHT22;6874;52.084;5.090;2023-06-10T06:24:52;20.90;63.50
13606;DHT22;6874;52.084;5.090;2023-06-10T06:27:18;20.90;63.60
13606;DHT22;6874;52.084;5.090;2023-06-10T06:29:43;20.90;63.50
13606;DHT22;6874;52.084;5.090;2023-06-10T06:32:09;20.90;63.70
13606;DHT22;6874;52.084;5.090;2023-06-10T06:34:34;20.90;63.70
13606;DHT22;6874;52.084;5.090;2023-06-10T06:37:00;20.90;63.70
13606;DHT22;6874;52.084;5.090;2023-06-10T06:39:25;21.00;63.80
13606;DHT22;6874;52.084;5.090;2023-06-10T06:41:51;21.00;63.80
13606;DHT22;6874;52.084;5.090;2023-06-10T06:44:16;20.90;63.70
13606;DHT22;6874;52.084;5.090;2023-06-10T06:46:42;21.10;64.20
13606;DHT22;6874;52.084;5.090;2023-06-10T06:49:07;21.00;64.10
13606;DHT22;6874;52.084;5.090;2023-06-10T06:51:33;21.00;64.10
13606;DHT22;6874;52.084;5.090;2023-06-10T06:53:58;21.10;64.20
13606;DHT22;6874;52.084;5.090;2023-06-10T06:56:25;21.10;64.20
13606;DHT22;6874;52.084;5.090;2023-06-10T06:58:51;21.20;64.50
13606;DHT22;6874;52.084;5.090;2023-06-10T07:01:17;21.20;65.30
13606;DHT22;6874;52.084;5.090;2023-06-10T07:03:42;21.30;64.60
13606;DHT22;6874;52.084;5.090;2023-06-10T07:06:08;21.30;64.70
13606;DHT22;6874;52.084;5.090;2023-06-10T07:08:33;21.40;65.00
13606;DHT22;6874;52.084;5.090;2023-06-10T07:10:59;21.50;65.20
13606;DHT22;6874;52.084;5.090;2023-06-10T07:13:25;21.60;65.30
13606;DHT22;6874;52.084;5.090;2023-06-10T07:15:50;21.60;65.20
13606;DHT22;6874;52.084;5.090;2023-06-10T07:18:17;21.80;65.30
13606;DHT22;6874;52.084;5.090;2023-06-10T07:20:43;21.80;65.40
13606;DHT22;6874;52.084;5.090;2023-06-10T07:23:08;21.90;65.30
13606;DHT22;6874;52.084;5.090;2023-06-10T07:25:34;22.00;65.50
13606;DHT22;6874;52.084;5.090;2023-06-10T07:28:00;22.10;65.80
13606;DHT22;6874;52.084;5.090;2023-06-10T07:30:25;22.30;66.10
13606;DHT22;6874;52.084;5.090;2023-06-10T07:32:51;22.50;66.10
13606;DHT22;6874;52.084;5.090;2023-06-10T07:35:17;22.70;65.80
13606;DHT22;6874;52.084;5.090;2023-06-10T07:37:42;22.90;65.60
13606;DHT22;6874;52.084;5.090;2023-06-10T07:40:08;23.20;65.30
13606;DHT22;6874;52.084;5.090;2023-06-10T07:42:37;23.40;65.30
13606;DHT22;6874;52.084;5.090;2023-06-10T07:45:03;23.70;65.00
13606;DHT22;6874;52.084;5.090;2023-06-10T07:47:30;23.90;64.60
13606;DHT22;6874;52.084;5.090;2023-06-10T07:49:55;24.20;64.40
13606;DHT22;6874;52.084;5.090;2023-06-10T07:52:21;24.30;63.80
13606;DHT22;6874;52.084;5.090;2023-06-10T07:54:46;24.50;63.70
13606;DHT22;6874;52.084;5.090;2023-06-10T07:57:12;24.70;62.90
13606;DHT22;6874;52.084;5.090;2023-06-10T07:59:38;24.90;62.50
13606;DHT22;6874;52.084;5.090;2023-06-10T08:02:04;25.10;62.10
13606;DHT22;6874;52.084;5.090;2023-06-10T08:04:29;25.30;62.10
13606;DHT22;6874;52.084;5.090;2023-06-10T08:06:56;25.50;61.60
13606;DHT22;6874;52.084;5.090;2023-06-10T08:09:22;25.70;61.10
13606;DHT22;6874;52.084;5.090;2023-06-10T08:11:48;25.80;60.90
13606;DHT22;6874;52.084;5.090;2023-06-10T08:14:15;26.10;60.70
13606;DHT22;6874;52.084;5.090;2023-06-10T08:16:42;26.20;60.40
13606;DHT22;6874;52.084;5.090;2023-06-10T08:19:08;26.40;60.00
13606;DHT22;6874;52.084;5.090;2023-06-10T08:21:34;26.50;59.80
13606;DHT22;6874;52.084;5.090;2023-06-10T08:24:02;26.60;59.80
13606;DHT22;6874;52.084;5.090;2023-06-10T08:26:28;26.80;59.40
13606;DHT22;6874;52.084;5.090;2023-06-10T08:28:53;26.90;59.20
13606;DHT22;6874;52.084;5.090;2023-06-10T08:31:20;27.10;59.20
13606;DHT22;6874;52.084;5.090;2023-06-10T08:33:46;27.20;59.00
13606;DHT22;6874;52.084;5.090;2023-06-10T08:36:11;27.30;58.90
13606;DHT22;6874;52.084;5.090;2023-06-10T08:38:37;27.40;59.10
13606;DHT22;6874;52.084;5.090;2023-06-10T08:41:05;27.60;58.90
13606;DHT22;6874;52.084;5.090;2023-06-10T08:43:39;27.70;58.70
13606;DHT22;6874;52.084;5.090;2023-06-10T08:46:09;27.90;58.90
13606;DHT22;6874;52.084;5.090;2023-06-10T08:48:41;28.00;58.70
13606;DHT22;6874;52.084;5.090;2023-06-10T08:51:10;28.10;58.60
13606;DHT22;6874;52.084;5.090;2023-06-10T08:53:38;28.30;58.70
13606;DHT22;6874;52.084;5.090;2023-06-10T08:56:06;28.40;56.00
13606;DHT22;6874;52.084;5.090;2023-06-10T08:58:33;28.50;55.10
13606;DHT22;6874;52.084;5.090;2023-06-10T09:01:00;28.60;54.20
13606;DHT22;6874;52.084;5.090;2023-06-10T09:03:27;28.70;53.10
13606;DHT22;6874;52.084;5.090;2023-06-10T09:05:53;28.80;54.90
13606;DHT22;6874;52.084;5.090;2023-06-10T09:08:20;29.00;55.50
13606;DHT22;6874;52.084;5.090;2023-06-10T09:10:46;29.10;55.80
13606;DHT22;6874;52.084;5.090;2023-06-10T09:13:12;29.30;56.20
13606;DHT22;6874;52.084;5.090;2023-06-10T09:15:41;29.40;56.50
13606;DHT22;6874;52.084;5.090;2023-06-10T09:18:10;29.50;56.10
13606;DHT22;6874;52.084;5.090;2023-06-10T09:20:35;29.60;56.10
13606;DHT22;6874;52.084;5.090;2023-06-10T09:23:01;29.70;56.30
13606;DHT22;6874;52.084;5.090;2023-06-10T09:25:37;29.90;56.20
13606;DHT22;6874;52.084;5.090;2023-06-10T09:28:04;30.00;56.00
13606;DHT22;6874;52.084;5.090;2023-06-10T09:30:31;30.10;55.80
13606;DHT22;6874;52.084;5.090;2023-06-10T09:33:02;30.20;56.30
13606;DHT22;6874;52.084;5.090;2023-06-10T09:35:29;30.30;55.50
13606;DHT22;6874;52.084;5.090;2023-06-10T09:37:56;30.40;55.70
13606;DHT22;6874;52.084;5.090;2023-06-10T09:40:23;30.40;55.70
13606;DHT22;6874;52.084;5.090;2023-06-10T09:42:58;30.50;55.30
13606;DHT22;6874;52.084;5.090;2023-06-10T09:45:30;30.50;55.60
13606;DHT22;6874;52.084;5.090;2023-06-10T09:47:59;30.70;55.50
13606;DHT22;6874;52.084;5.090;2023-06-10T09:50:25;30.80;55.40
13606;DHT22;6874;52.084;5.090;2023-06-10T09:52:51;30.80;55.40
13606;DHT22;6874;52.084;5.090;2023-06-10T09:55:17;30.90;55.00
13606;DHT22;6874;52.084;5.090;2023-06-10T09:57:43;31.10;55.10
13606;DHT22;6874;52.084;5.090;2023-06-10T10:00:13;31.10;54.70
13606;DHT22;6874;52.084;5.090;2023-06-10T10:02:45;31.20;54.60
13606;DHT22;6874;52.084;5.090;2023-06-10T10:05:13;31.30;54.30
13606;DHT22;6874;52.084;5.090;2023-06-10T10:07:40;31.30;54.60
13606;DHT22;6874;52.084;5.090;2023-06-10T10:10:06;31.40;53.90
13606;DHT22;6874;52.084;5.090;2023-06-10T10:12:34;31.50;53.40
13606;DHT22;6874;52.084;5.090;2023-06-10T10:15:00;31.50;53.60
13606;DHT22;6874;52.084;5.090;2023-06-10T10:17:28;31.50;53.60
13606;DHT22;6874;52.084;5.090;2023-06-10T10:19:59;31.70;53.50
13606;DHT22;6874;52.084;5.090;2023-06-10T10:22:31;31.70;53.40
13606;DHT22;6874;52.084;5.090;2023-06-10T10:25:02;31.80;53.20
13606;DHT22;6874;52.084;5.090;2023-06-10T10:27:40;31.90;53.40
13606;DHT22;6874;52.084;5.090;2023-06-10T10:30:10;31.90;52.70
13606;DHT22;6874;52.084;5.090;2023-06-10T10:33:03;32.00;53.10
13606;DHT22;6874;52.084;5.090;2023-06-10T10:35:31;32.00;52.90
13606;DHT22;6874;52.084;5.090;2023-06-10T10:37:58;32.00;52.90
13606;DHT22;6874;52.084;5.090;2023-06-10T10:40:25;32.10;52.60
13606;DHT22;6874;52.084;5.090;2023-06-10T10:42:52;32.20;52.10
13606;DHT22;6874;52.084;5.090;2023-06-10T10:45:19;32.20;52.20
13606;DHT22;6874;52.084;5.090;2023-06-10T10:47:53;32.20;51.30
13606;DHT22;6874;52.084;5.090;2023-06-10T10:50:21;32.30;51.40
13606;DHT22;6874;52.084;5.090;2023-06-10T10:52:55;32.30;51.50
13606;DHT22;6874;52.084;5.090;2023-06-10T10:55:23;32.30;50.70
13606;DHT22;6874;52.084;5.090;2023-06-10T10:57:56;32.40;50.70
13606;DHT22;6874;52.084;5.090;2023-06-10T11:00:30;32.40;50.80
13606;DHT22;6874;52.084;5.090;2023-06-10T11:05:45;32.50;51.30
13606;DHT22;6874;52.084;5.090;2023-06-10T11:10:52;32.60;51.50
13606;DHT22;6874;52.084;5.090;2023-06-10T11:13:20;32.60;51.40
13606;DHT22;6874;52.084;5.090;2023-06-10T11:15:47;32.70;51.00
13606;DHT22;6874;52.084;5.090;2023-06-10T11:23:25;32.80;50.70
13606;DHT22;6874;52.084;5.090;2023-06-10T11:25:51;32.80;50.90
13606;DHT22;6874;52.084;5.090;2023-06-10T11:28:20;32.80;50.10
13606;DHT22;6874;52.084;5.090;2023-06-10T11:30:46;32.90;50.80
13606;DHT22;6874;52.084;5.090;2023-06-10T11:33:22;32.90;51.40
13606;DHT22;6874;52.084;5.090;2023-06-10T11:35:48;32.90;51.40
13606;DHT22;6874;52.084;5.090;2023-06-10T11:38:15;32.90;51.10
13606;DHT22;6874;52.084;5.090;2023-06-10T11:40:48;32.90;49.50
13606;DHT22;6874;52.084;5.090;2023-06-10T11:43:15;33.00;50.30
13606;DHT22;6874;52.084;5.090;2023-06-10T11:45:44;33.00;50.10
13606;DHT22;6874;52.084;5.090;2023-06-10T11:48:10;33.00;50.20
13606;DHT22;6874;52.084;5.090;2023-06-10T11:50:36;33.00;48.70
13606;DHT22;6874;52.084;5.090;2023-06-10T11:53:03;33.00;49.20
13606;DHT22;6874;52.084;5.090;2023-06-10T11:55:41;33.00;49.40
13606;DHT22;6874;52.084;5.090;2023-06-10T11:58:27;33.00;49.50
13606;DHT22;6874;52.084;5.090;2023-06-10T12:00:54;33.00;49.40
13606;DHT22;6874;52.084;5.090;2023-06-10T12:03:23;33.00;50.10
13606;DHT22;6874;52.084;5.090;2023-06-10T12:05:59;33.00;50.20
13606;DHT22;6874;52.084;5.090;2023-06-10T12:08:25;33.10;50.20
13606;DHT22;6874;52.084;5.090;2023-06-10T12:10:51;33.10;50.30
13606;DHT22;6874;52.084;5.090;2023-06-10T12:13:17;33.10;49.70
13606;DHT22;6874;52.084;5.090;2023-06-10T12:15:46;33.10;49.20
13606;DHT22;6874;52.084;5.090;2023-06-10T12:18:22;33.10;49.10
13606;DHT22;6874;52.084;5.090;2023-06-10T12:20:49;33.10;48.80
13606;DHT22;6874;52.084;5.090;2023-06-10T12:23:17;33.10;49.00
13606;DHT22;6874;52.084;5.090;2023-06-10T12:25:50;33.10;49.30
13606;DHT22;6874;52.084;5.090;2023-06-10T12:28:17;33.10;48.90
13606;DHT22;6874;52.084;5.090;2023-06-10T12:30:44;33.10;49.40
13606;DHT22;6874;52.084;5.090;2023-06-10T12:33:17;33.10;48.60
13606;DHT22;6874;52.084;5.090;2023-06-10T12:35:52;33.10;49.30
13606;DHT22;6874;52.084;5.090;2023-06-10T12:38:22;33.10;49.50
13606;DHT22;6874;52.084;5.090;2023-06-10T12:40:50;33.10;49.20
13606;DHT22;6874;52.084;5.090;2023-06-10T12:43:25;33.10;49.10
13606;DHT22;6874;52.084;5.090;2023-06-10T12:45:54;33.10;48.70
13606;DHT22;6874;52.084;5.090;2023-06-10T12:48:20;33.10;49.00
13606;DHT22;6874;52.084;5.090;2023-06-10T12:50:51;33.10;48.90
13606;DHT22;6874;52.084;5.090;2023-06-10T12:53:18;33.20;49.00
13606;DHT22;6874;52.084;5.090;2023-06-10T12:55:43;33.20;49.40
13606;DHT22;6874;52.084;5.090;2023-06-10T12:58:11;33.20;49.40
13606;DHT22;6874;52.084;5.090;2023-06-10T13:00:36;33.20;48.70
13606;DHT22;6874;52.084;5.090;2023-06-10T13:03:03;33.30;49.10
13606;DHT22;6874;52.084;5.090;2023-06-10T13:05:31;33.20;48.60
13606;DHT22;6874;52.084;5.090;2023-06-10T13:07:57;33.20;48.90
13606;DHT22;6874;52.084;5.090;2023-06-10T13:10:23;33.30;49.20
13606;DHT22;6874;52.084;5.090;2023-06-10T13:12:48;33.30;49.30
13606;DHT22;6874;52.084;5.090;2023-06-10T13:15:15;33.30;48.90
13606;DHT22;6874;52.084;5.090;2023-06-10T13:17:41;33.30;48.60
13606;DHT22;6874;52.084;5.090;2023-06-10T13:20:09;33.30;48.80
13606;DHT22;6874;52.084;5.090;2023-06-10T13:22:36;33.30;48.30
13606;DHT22;6874;52.084;5.090;2023-06-10T13:25:05;33.30;48.30
13606;DHT22;6874;52.084;5.090;2023-06-10T13:27:33;33.30;48.60
13606;DHT22;6874;52.084;5.090;2023-06-10T13:29:59;33.30;49.40
13606;DHT22;6874;52.084;5.090;2023-06-10T13:32:24;33.40;48.90
13606;DHT22;6874;52.084;5.090;2023-06-10T13:34:50;33.50;48.00
13606;DHT22;6874;52.084;5.090;2023-06-10T13:37:16;33.40;47.20
13606;DHT22;6874;52.084;5.090;2023-06-10T13:39:47;33.40;47.40
13606;DHT22;6874;52.084;5.090;2023-06-10T13:42:16;33.40;48.10
13606;DHT22;6874;52.084;5.090;2023-06-10T13:44:41;33.40;47.30
13606;DHT22;6874;52.084;5.090;2023-06-10T13:47:07;33.50;47.40
13606;DHT22;6874;52.084;5.090;2023-06-10T13:49:33;33.40;48.10
13606;DHT22;6874;52.084;5.090;2023-06-10T13:51:59;33.50;47.40
13606;DHT22;6874;52.084;5.090;2023-06-10T13:54:24;33.50;48.80
13606;DHT22;6874;52.084;5.090;2023-06-10T13:56:50;33.50;50.10
13606;DHT22;6874;52.084;5.090;2023-06-10T13:59:15;33.50;48.90
13606;DHT22;6874;52.084;5.090;2023-06-10T14:01:41;33.50;48.40
13606;DHT22;6874;52.084;5.090;2023-06-10T14:04:07;33.60;48.00
13606;DHT22;6874;52.084;5.090;2023-06-10T14:06:33;33.60;48.30
13606;DHT22;6874;52.084;5.090;2023-06-10T14:08:59;33.60;49.10
13606;DHT22;6874;52.084;5.090;2023-06-10T14:11:25;33.60;49.40
13606;DHT22;6874;52.084;5.090;2023-06-10T14:13:51;33.60;50.10
13606;DHT22;6874;52.084;5.090;2023-06-10T14:16:16;33.70;49.80
13606;DHT22;6874;52.084;5.090;2023-06-10T14:18:42;33.70;50.40
13606;DHT22;6874;52.084;5.090;2023-06-10T14:21:08;33.70;49.00
13606;DHT22;6874;52.084;5.090;2023-06-10T14:23:33;33.70;49.40
13606;DHT22;6874;52.084;5.090;2023-06-10T14:25:59;33.80;49.70
13606;DHT22;6874;52.084;5.090;2023-06-10T14:28:25;33.80;47.90
13606;DHT22;6874;52.084;5.090;2023-06-10T14:30:51;33.80;49.30
13606;DHT22;6874;52.084;5.090;2023-06-10T14:33:18;33.90;49.00
13606;DHT22;6874;52.084;5.090;2023-06-10T14:35:43;33.90;50.20
13606;DHT22;6874;52.084;5.090;2023-06-10T14:38:09;33.90;50.80
13606;DHT22;6874;52.084;5.090;2023-06-10T14:40:35;33.90;50.10
13606;DHT22;6874;52.084;5.090;2023-06-10T14:43:00;33.90;49.70
13606;DHT22;6874;52.084;5.090;2023-06-10T14:45:29;34.00;50.10
13606;DHT22;6874;52.084;5.090;2023-06-10T14:47:54;34.00;50.60
13606;DHT22;6874;52.084;5.090;2023-06-10T14:50:20;34.10;51.30
13606;DHT22;6874;52.084;5.090;2023-06-10T14:52:46;34.10;51.10
13606;DHT22;6874;52.084;5.090;2023-06-10T14:55:11;34.10;50.90
13606;DHT22;6874;52.084;5.090;2023-06-10T14:57:37;34.20;50.50
13606;DHT22;6874;52.084;5.090;2023-06-10T15:00:02;34.20;49.70
13606;DHT22;6874;52.084;5.090;2023-06-10T15:02:29;34.20;49.20
13606;DHT22;6874;52.084;5.090;2023-06-10T15:04:54;34.20;48.00
13606;DHT22;6874;52.084;5.090;2023-06-10T15:07:20;34.20;49.10
13606;DHT22;6874;52.084;5.090;2023-06-10T15:09:45;34.20;49.60
13606;DHT22;6874;52.084;5.090;2023-06-10T15:12:11;34.20;50.50
13606;DHT22;6874;52.084;5.090;2023-06-10T15:14:36;34.20;50.50
13606;DHT22;6874;52.084;5.090;2023-06-10T15:17:02;34.20;49.10
13606;DHT22;6874;52.084;5.090;2023-06-10T15:19:28;34.20;47.50
13606;DHT22;6874;52.084;5.090;2023-06-10T15:21:53;34.20;48.00
13606;DHT22;6874;52.084;5.090;2023-06-10T15:24:19;34.20;48.60
13606;DHT22;6874;52.084;5.090;2023-06-10T15:26:45;34.20;47.40
13606;DHT22;6874;52.084;5.090;2023-06-10T15:29:11;34.20;47.20
13606;DHT22;6874;52.084;5.090;2023-06-10T15:31:36;34.10;49.30
13606;DHT22;6874;52.084;5.090;2023-06-10T15:34:02;34.10;49.20
13606;DHT22;6874;52.084;5.090;2023-06-10T15:36:29;34.20;49.40
13606;DHT22;6874;52.084;5.090;2023-06-10T15:39:02;34.20;50.30
13606;DHT22;6874;52.084;5.090;2023-06-10T15:41:28;34.20;51.00
13606;DHT22;6874;52.084;5.090;2023-06-10T15:43:54;34.10;50.90
13606;DHT22;6874;52.084;5.090;2023-06-10T15:46:20;34.20;49.20
13606;DHT22;6874;52.084;5.090;2023-06-10T15:48:45;34.20;48.80
13606;DHT22;6874;52.084;5.090;2023-06-10T15:51:12;34.20;47.60
13606;DHT22;6874;52.084;5.090;2023-06-10T15:53:37;34.10;47.80
13606;DHT22;6874;52.084;5.090;2023-06-10T15:56:03;34.10;48.00